Time;durP1;ratioP1;P1;durP2;ratioP2;P2;SDS_P1;SDS_P2;PMS_P1;PMS_P2;Temp;Humidity;BMP_temperature;BMP_pressure;BME280_temperature;BME280_humidity;BME280_pressure;Samples;Min_cycle;Max_cycle;Signal;HPM_P1;HPM_P2
2022/06/30 00:00:12;;;;;;;8.20;5.75;;;16.10;99.90;;;;;;5033934;28;20107;-63
2022/06/30 00:02:40;;;;;;;12.57;5.82;;;16.00;99.90;;;;;;5034240;28;20487;-62
2022/06/30 00:05:08;;;;;;;10.57;6.18;;;16.00;99.90;;;;;;5028595;28;20068;-63
2022/06/30 00:07:34;;;;;;;;;;;16.00;99.90;;;;;;5034602;28;20068;-63
2022/06/30 00:10:01;;;;;;;10.10;5.60;;;16.00;99.90;;;;;;5033543;28;19975;-62
2022/06/30 00:12:28;;;;;;;9.18;5.90;;;15.90;99.90;;;;;;5030113;28;20103;-63
2022/06/30 00:14:55;;;;;;;11.77;5.63;;;15.90;99.90;;;;;;5024331;28;20060;-62
2022/06/30 00:17:22;;;;;;;9.75;5.45;;;15.90;99.90;;;;;;5033066;28;20449;-62
2022/06/30 00:19:48;;;;;;;14.30;6.13;;;15.90;99.90;;;;;;5040944;28;20103;-62
2022/06/30 00:22:15;;;;;;;10.55;5.93;;;15.90;99.90;;;;;;5048009;28;20049;-62
2022/06/30 00:24:42;;;;;;;6.32;4.93;;;15.80;99.90;;;;;;5033788;28;20452;-62
2022/06/30 00:27:09;;;;;;;10.90;5.70;;;15.90;99.90;;;;;;5032658;28;20045;-62
2022/06/30 00:29:35;;;;;;;9.98;5.70;;;15.90;99.90;;;;;;5030159;28;20410;-62
2022/06/30 00:32:02;;;;;;;8.20;5.82;;;15.90;99.90;;;;;;5013635;28;20045;-62
2022/06/30 00:34:29;;;;;;;12.85;5.60;;;15.80;99.90;;;;;;5013721;28;20446;-62
2022/06/30 00:36:56;;;;;;;12.20;5.78;;;15.80;99.90;;;;;;5017077;28;20067;-62
2022/06/30 00:39:23;;;;;;;12.65;6.40;;;15.80;99.90;;;;;;5037354;28;20128;-63
2022/06/30 00:41:50;;;;;;;14.25;6.28;;;15.80;99.90;;;;;;5042710;28;20045;-63
2022/06/30 00:44:17;;;;;;;11.85;6.13;;;15.80;99.90;;;;;;5044892;28;20079;-63
2022/06/30 00:46:44;;;;;;;12.27;6.03;;;15.80;99.90;;;;;;5047885;28;20068;-63
2022/06/30 00:49:11;;;;;;;11.80;6.30;;;15.80;99.90;;;;;;5033194;28;20037;-63
2022/06/30 00:51:38;;;;;;;9.23;5.80;;;15.80;99.90;;;;;;5032934;28;20049;-63
2022/06/30 00:54:06;;;;;;;10.25;5.97;;;15.70;99.90;;;;;;5029836;28;20041;-63
2022/06/30 00:56:34;;;;;;;10.63;5.68;;;15.70;99.90;;;;;;5040814;28;20051;-63
2022/06/30 00:59:04;;;;;;;10.90;6.30;;;15.70;99.90;;;;;;5044845;28;20041;-62
2022/06/30 01:01:32;;;;;;;8.48;5.95;;;15.50;99.90;;;;;;5052566;28;20520;-63
2022/06/30 01:04:00;;;;;;;10.05;5.95;;;15.70;99.90;;;;;;5027790;28;20067;-62
2022/06/30 01:06:28;;;;;;;11.48;6.63;;;15.70;99.90;;;;;;5032569;28;20050;-62
2022/06/30 01:08:56;;;;;;;8.13;6.03;;;15.70;99.90;;;;;;5033327;28;20056;-63
2022/06/30 01:14:08;;;;;;;7.63;5.03;;;15.70;99.90;;;;;;5025470;28;20064;-62
2022/06/30 01:16:39;;;;;;;18.02;6.65;;;15.70;99.90;;;;;;5032273;28;20037;-62
2022/06/30 01:19:07;;;;;;;8.82;5.85;;;15.60;99.90;;;;;;5032029;28;20038;-62
2022/06/30 01:21:34;;;;;;;13.50;6.82;;;15.60;99.90;;;;;;5018832;28;20387;-62
2022/06/30 01:24:01;;;;;;;10.00;6.43;;;15.50;99.90;;;;;;5032598;28;20091;-62
2022/06/30 01:26:28;;;;;;;9.10;6.03;;;15.50;99.90;;;;;;5030228;28;20564;-62
2022/06/30 01:28:56;;;;;;;10.02;6.70;;;15.40;99.90;;;;;;5031460;28;20038;-62
2022/06/30 01:31:23;;;;;;;;;;;15.40;99.90;;;;;;5032585;28;20046;-62
2022/06/30 01:33:50;;;;;;;7.07;5.70;;;15.40;99.90;;;;;;5032451;28;20340;-62
2022/06/30 01:36:17;;;;;;;;;;;15.30;99.90;;;;;;5029320;28;20038;-63
2022/06/30 01:38:44;;;;;;;7.60;5.95;;;15.40;99.90;;;;;;5030150;28;19931;-62
2022/06/30 01:41:11;;;;;;;11.93;6.40;;;15.30;99.90;;;;;;5032244;28;20049;-62
2022/06/30 01:43:37;;;;;;;12.32;6.25;;;15.30;99.90;;;;;;5032364;28;20107;-62
2022/06/30 01:46:04;;;;;;;10.00;6.43;;;15.30;99.90;;;;;;5029224;28;20046;-62
2022/06/30 01:48:31;;;;;;;11.93;6.18;;;15.20;99.90;;;;;;5032393;28;20051;-62
2022/06/30 01:50:57;;;;;;;13.77;7.90;;;15.10;99.90;;;;;;5032003;28;20099;-62
2022/06/30 01:53:24;;;;;;;8.93;6.07;;;15.20;99.90;;;;;;5032199;28;20087;-62
2022/06/30 01:55:51;;;;;;;12.05;6.85;;;15.20;99.90;;;;;;5028377;28;20529;-62
2022/06/30 01:58:18;;;;;;;10.05;6.35;;;15.20;99.90;;;;;;5032192;28;20049;-62
2022/06/30 02:00:44;;;;;;;12.07;6.80;;;15.20;99.90;;;;;;5031706;28;20053;-62
2022/06/30 02:03:11;;;;;;;7.40;5.95;;;15.20;99.90;;;;;;5027158;28;20046;-62
2022/06/30 02:05:38;;;;;;;9.80;6.53;;;15.20;99.90;;;;;;5028952;28;20057;-62
2022/06/30 02:08:05;;;;;;;13.52;6.18;;;15.30;99.90;;;;;;5032266;28;20053;-62
2022/06/30 02:10:32;;;;;;;11.77;6.30;;;15.30;99.90;;;;;;5030226;28;20494;-62
2022/06/30 02:13:24;;;;;;;11.48;5.97;;;15.20;99.90;;;;;;5032574;28;20061;-62
2022/06/30 02:15:51;;;;;;;10.52;6.05;;;15.20;99.90;;;;;;5022664;28;20107;-63
2022/06/30 02:18:18;;;;;;;12.18;6.55;;;15.20;99.90;;;;;;5031548;28;20045;-63
2022/06/30 02:20:44;;;;;;;12.73;6.05;;;15.10;99.90;;;;;;5031368;28;20041;-63
2022/06/30 02:23:11;;;;;;;13.07;5.97;;;15.10;99.90;;;;;;5030099;28;20040;-63
2022/06/30 02:25:38;;;;;;;11.38;5.80;;;15.00;99.90;;;;;;5031681;28;20109;-63
2022/06/30 02:28:05;;;;;;;12.77;6.82;;;15.00;99.90;;;;;;5031728;28;20045;-63
2022/06/30 02:30:33;;;;;;;10.98;6.82;;;14.90;99.90;;;;;;5031634;28;20565;-63
2022/06/30 02:33:00;;;;;;;10.88;6.45;;;14.90;99.90;;;;;;5030589;28;20087;-63
2022/06/30 02:35:27;;;;;;;14.93;6.78;;;14.90;99.90;;;;;;5031639;28;20449;-63
2022/06/30 02:37:54;;;;;;;11.20;6.15;;;14.90;99.90;;;;;;5046926;28;20045;-63
2022/06/30 02:40:21;;;;;;;10.32;6.53;;;14.90;99.90;;;;;;5028772;28;20049;-63
2022/06/30 02:42:53;;;;;;;8.60;5.97;;;14.90;99.90;;;;;;5031503;28;20041;-63
2022/06/30 02:45:19;;;;;;;11.07;6.35;;;14.90;99.90;;;;;;5031609;28;20046;-63
2022/06/30 02:47:46;;;;;;;9.32;5.68;;;14.90;99.90;;;;;;5031603;28;20131;-63
2022/06/30 02:50:13;;;;;;;10.70;6.15;;;14.90;99.90;;;;;;5030325;28;20518;-63
2022/06/30 02:52:40;;;;;;;;;;;14.90;99.90;;;;;;5031532;28;20049;-63
2022/06/30 02:55:08;;;;;;;9.75;6.47;;;14.80;99.90;;;;;;5031442;28;19921;-63
2022/06/30 02:57:36;;;;;;;11.13;6.60;;;14.80;99.90;;;;;;5031440;28;20056;-63
2022/06/30 03:00:08;;;;;;;12.07;7.18;;;14.80;99.90;;;;;;5028759;28;20045;-63
2022/06/30 03:02:35;;;;;;;9.95;6.40;;;14.90;99.90;;;;;;5031103;28;20045;-63
2022/06/30 03:05:02;;;;;;;12.50;6.03;;;14.80;99.90;;;;;;5031366;28;20041;-63
2022/06/30 03:07:29;;;;;;;;;;;14.90;99.90;;;;;;5030515;28;20368;-63
2022/06/30 03:09:56;;;;;;;9.07;5.90;;;14.90;99.90;;;;;;5030736;28;19921;-63
2022/06/30 03:12:23;;;;;;;14.90;6.93;;;14.90;99.90;;;;;;5031343;28;20041;-63
2022/06/30 03:14:49;;;;;;;9.68;6.10;;;14.90;99.90;;;;;;5031132;28;20045;-63
2022/06/30 03:17:16;;;;;;;14.15;6.22;;;14.90;99.90;;;;;;5030156;28;20045;-63
2022/06/30 03:19:43;;;;;;;8.57;6.32;;;14.80;99.90;;;;;;5030816;28;20476;-63
2022/06/30 03:22:10;;;;;;;8.18;6.55;;;14.80;99.90;;;;;;5030851;28;20049;-63
2022/06/30 03:24:37;;;;;;;8.45;6.53;;;14.70;99.90;;;;;;5031242;28;20096;-63
2022/06/30 03:27:04;;;;;;;11.20;7.03;;;14.70;99.90;;;;;;5030248;28;20041;-63
2022/06/30 03:29:31;;;;;;;;;;;14.70;99.90;;;;;;5031520;28;20046;-64
2022/06/30 03:31:58;;;;;;;9.20;6.07;;;14.80;99.90;;;;;;5030586;28;19928;-64
2022/06/30 03:34:24;;;;;;;12.20;6.10;;;14.80;99.90;;;;;;5029862;28;20037;-64
2022/06/30 03:36:51;;;;;;;7.95;6.22;;;14.80;99.90;;;;;;5030943;28;20107;-64
2022/06/30 03:39:18;;;;;;;9.85;6.35;;;14.80;99.90;;;;;;5031099;28;20108;-64
2022/06/30 03:41:44;;;;;;;13.65;7.07;;;14.80;99.90;;;;;;5030583;28;20490;-64
2022/06/30 03:44:11;;;;;;;10.95;6.03;;;14.80;99.90;;;;;;5029880;28;20437;-64
2022/06/30 03:46:38;;;;;;;8.70;6.00;;;14.90;99.90;;;;;;5030944;28;20045;-64
2022/06/30 03:49:04;;;;;;;9.73;6.15;;;14.90;99.90;;;;;;5031471;28;20087;-64
2022/06/30 03:51:31;;;;;;;9.05;6.10;;;14.90;99.90;;;;;;5029889;28;20053;-64
2022/06/30 03:53:58;;;;;;;11.52;5.85;;;15.00;99.90;;;;;;5034329;28;20103;-64
2022/06/30 03:56:25;;;;;;;9.23;5.53;;;15.00;99.90;;;;;;5034764;28;20045;-64
2022/06/30 03:58:52;;;;;;;10.77;5.72;;;15.00;99.90;;;;;;5034627;28;20065;-64
2022/06/30 04:01:19;;;;;;;11.32;5.82;;;15.00;99.90;;;;;;5030205;28;20049;-64
2022/06/30 04:03:45;;;;;;;9.10;6.07;;;15.10;99.90;;;;;;5034243;28;20041;-64
2022/06/30 04:06:12;;;;;;;7.15;5.38;;;15.20;99.90;;;;;;5034055;28;20034;-64
2022/06/30 04:08:39;;;;;;;6.80;5.70;;;15.30;99.90;;;;;;5032694;28;20096;-64
2022/06/30 04:11:06;;;;;;;9.88;5.97;;;15.30;99.90;;;;;;5033539;28;20041;-64
2022/06/30 04:13:32;;;;;;;10.68;6.35;;;15.30;99.90;;;;;;5033592;28;20555;-64
2022/06/30 04:15:59;;;;;;;7.28;5.20;;;15.40;99.90;;;;;;5033354;28;20049;-64
2022/06/30 04:18:26;;;;;;;7.95;5.72;;;15.50;99.90;;;;;;5032547;28;20532;-64
2022/06/30 04:20:52;;;;;;;10.43;5.55;;;15.50;99.90;;;;;;5033661;28;20042;-64
2022/06/30 04:23:20;;;;;;;11.77;5.47;;;15.60;99.90;;;;;;5033605;28;20052;-64
2022/06/30 04:25:47;;;;;;;11.60;5.78;;;15.60;99.90;;;;;;5032199;28;20422;-64
2022/06/30 04:28:14;;;;;;;13.55;6.07;;;15.60;99.90;;;;;;5031799;28;20050;-64
2022/06/30 04:33:26;;;;;;;10.75;6.10;;;15.60;99.90;;;;;;5033266;28;20112;-64
2022/06/30 04:35:52;;;;;;;10.68;6.70;;;15.60;99.90;;;;;;5032293;28;20045;-64
2022/06/30 04:38:19;;;;;;;12.13;6.43;;;15.70;99.90;;;;;;5033438;28;20044;-64
2022/06/30 04:43:31;;;;;;;9.50;6.75;;;15.80;99.90;;;;;;5030795;28;20552;-65
2022/06/30 04:45:58;;;;;;;14.68;7.20;;;15.90;99.90;;;;;;5033194;28;20056;-64
2022/06/30 04:48:25;;;;;;;11.63;6.80;;;16.00;99.90;;;;;;5033348;28;20049;-64
2022/06/30 04:50:51;;;;;;;12.57;6.70;;;16.00;99.90;;;;;;5032821;28;20091;-64
2022/06/30 04:53:18;;;;;;;9.30;6.20;;;16.10;99.90;;;;;;5032407;28;20053;-64
2022/06/30 04:55:45;;;;;;;12.90;6.88;;;16.10;99.90;;;;;;5033083;28;20568;-65
2022/06/30 04:58:12;;;;;;;11.48;6.72;;;16.20;99.90;;;;;;5033509;28;20504;-64
2022/06/30 05:00:38;;;;;;;13.02;7.07;;;16.20;99.90;;;;;;5033056;28;20034;-65
2022/06/30 05:03:05;;;;;;;12.80;7.13;;;16.30;99.90;;;;;;5031991;28;20038;-64
2022/06/30 05:05:32;;;;;;;12.68;8.70;;;16.40;99.90;;;;;;5032651;28;20034;-64
2022/06/30 05:07:59;;;;;;;11.80;6.68;;;16.40;99.90;;;;;;5033228;28;20052;-64
2022/06/30 05:10:25;;;;;;;12.98;6.75;;;16.50;99.90;;;;;;5032775;28;20056;-65
2022/06/30 05:12:52;;;;;;;12.90;6.68;;;16.50;99.90;;;;;;5031799;28;20077;-64
2022/06/30 05:15:19;;;;;;;11.25;6.53;;;16.50;99.90;;;;;;5033058;28;20065;-64
2022/06/30 05:17:46;;;;;;;11.27;5.80;;;16.60;99.90;;;;;;5033006;28;20041;-65
2022/06/30 05:20:13;;;;;;;12.98;7.03;;;16.60;99.90;;;;;;5031294;28;20041;-64
2022/06/30 05:22:39;;;;;;;10.55;7.32;;;16.70;99.90;;;;;;5032492;28;20037;-64
2022/06/30 05:27:52;;;;;;;10.05;7.32;;;16.60;99.90;;;;;;5031371;28;20045;-64
2022/06/30 05:30:19;;;;;;;14.95;7.28;;;16.60;99.90;;;;;;5032409;28;20049;-64
2022/06/30 05:32:45;;;;;;;11.25;7.20;;;16.60;99.90;;;;;;5032771;28;20038;-64
2022/06/30 05:35:13;;;;;;;9.88;7.43;;;16.70;99.90;;;;;;5032503;28;20392;-64
2022/06/30 05:37:39;;;;;;;;;;;16.90;99.90;;;;;;5032420;28;20406;-64
2022/06/30 05:40:07;;;;;;;12.55;8.32;;;17.00;99.90;;;;;;5032154;28;19921;-64
2022/06/30 05:42:34;;;;;;;12.65;8.00;;;16.90;99.90;;;;;;5032499;28;20491;-64
2022/06/30 05:45:01;;;;;;;9.55;6.80;;;17.00;99.90;;;;;;5031468;28;20465;-64
2022/06/30 05:47:28;;;;;;;11.13;7.05;;;17.00;99.90;;;;;;5032285;28;20421;-64
2022/06/30 05:49:55;;;;;;;15.27;7.55;;;17.00;99.90;;;;;;5031130;28;20063;-64
2022/06/30 05:52:21;;;;;;;10.20;6.88;;;17.10;99.90;;;;;;5030362;28;20049;-64
2022/06/30 05:54:48;;;;;;;20.98;7.50;;;17.10;99.90;;;;;;5029570;28;20452;-64
2022/06/30 05:57:15;;;;;;;11.57;6.95;;;17.20;99.90;;;;;;5031476;28;20040;-64
2022/06/30 05:59:42;;;;;;;10.57;6.95;;;17.30;99.90;;;;;;5032178;28;20057;-64
2022/06/30 06:02:09;;;;;;;10.45;6.55;;;17.40;99.90;;;;;;5030427;28;20052;-64
2022/06/30 06:04:36;;;;;;;;;;;17.40;99.90;;;;;;5031345;28;20033;-64
2022/06/30 06:07:03;;;;;;;11.65;6.95;;;17.50;99.90;;;;;;5024210;28;19940;-64
2022/06/30 06:09:30;;;;;;;12.57;6.82;;;17.50;99.90;;;;;;5032211;28;20435;-64
2022/06/30 06:11:57;;;;;;;18.10;7.28;;;17.50;99.90;;;;;;5030924;28;20382;-64
2022/06/30 06:14:24;;;;;;;9.35;6.55;;;17.60;99.90;;;;;;5031303;28;20453;-64
2022/06/30 06:16:50;;;;;;;11.98;6.75;;;17.60;99.90;;;;;;5030937;28;20041;-64
2022/06/30 06:19:17;;;;;;;9.07;6.55;;;17.60;99.90;;;;;;5031937;28;20490;-64
2022/06/30 06:21:49;;;;;;;10.00;6.70;;;17.70;99.90;;;;;;5030239;28;20052;-64
2022/06/30 06:24:19;;;;;;;9.70;6.38;;;17.80;99.90;;;;;;5031631;28;20037;-64
2022/06/30 06:26:46;;;;;;;9.40;6.85;;;17.90;99.90;;;;;;5031627;28;20124;-64
2022/06/30 06:29:14;;;;;;;10.05;6.78;;;17.90;99.90;;;;;;5031745;28;20060;-64
2022/06/30 06:31:41;;;;;;;12.05;6.63;;;18.10;99.90;;;;;;5030311;28;20401;-64
2022/06/30 06:34:08;;;;;;;9.90;6.35;;;18.10;99.90;;;;;;5031550;28;20414;-64
2022/06/30 06:36:35;;;;;;;11.15;5.88;;;18.20;99.90;;;;;;5031525;28;20045;-64
2022/06/30 06:39:03;;;;;;;12.75;7.05;;;18.30;99.90;;;;;;5030325;28;20044;-64
2022/06/30 06:41:30;;;;;;;9.00;6.43;;;18.40;99.90;;;;;;5030981;28;20072;-64
2022/06/30 06:43:56;;;;;;;12.55;6.50;;;18.60;99.90;;;;;;5031288;28;20052;-64
2022/06/30 06:46:29;;;;;;;10.80;6.03;;;18.70;99.90;;;;;;5030794;28;20045;-64
2022/06/30 06:49:04;;;;;;;8.77;5.97;;;18.80;99.90;;;;;;5031112;28;20532;-64
2022/06/30 06:51:31;;;;;;;10.65;6.50;;;19.00;99.90;;;;;;5031065;28;20048;-64
2022/06/30 06:53:58;;;;;;;11.55;5.40;;;19.20;99.90;;;;;;5046696;28;20502;-64
2022/06/30 06:56:25;;;;;;;11.20;5.55;;;19.30;99.90;;;;;;5031039;28;20037;-64
2022/06/30 06:58:59;;;;;;;7.88;5.40;;;19.40;99.90;;;;;;5031095;28;20073;-64
2022/06/30 07:01:26;;;;;;;13.25;6.18;;;19.70;99.90;;;;;;5031037;28;20041;-64
2022/06/30 07:03:53;;;;;;;14.13;5.90;;;19.80;99.90;;;;;;5030396;28;20066;-64
2022/06/30 07:06:20;;;;;;;9.95;6.15;;;20.00;99.90;;;;;;5031052;28;20095;-64
2022/06/30 07:08:46;;;;;;;7.25;5.85;;;20.10;99.90;;;;;;5031097;28;20488;-65
2022/06/30 07:11:13;;;;;;;12.10;5.88;;;20.20;99.90;;;;;;5029629;28;20046;-64
2022/06/30 07:13:40;;;;;;;6.55;5.45;;;20.20;99.90;;;;;;5030899;28;20263;-64
2022/06/30 07:16:06;;;;;;;10.10;6.03;;;20.40;99.90;;;;;;5031208;28;20041;-64
2022/06/30 07:18:33;;;;;;;11.55;5.93;;;20.60;99.90;;;;;;5030992;28;20049;-64
2022/06/30 07:21:00;;;;;;;17.02;6.30;;;20.70;99.90;;;;;;5030137;28;20029;-64
2022/06/30 07:23:27;;;;;;;8.93;5.72;;;20.60;99.90;;;;;;5030767;28;20064;-64
2022/06/30 07:25:56;;;;;;;11.00;6.38;;;20.60;99.90;;;;;;5031298;28;20474;-64
2022/06/30 07:28:23;;;;;;;9.45;6.15;;;20.60;99.90;;;;;;5033719;28;20507;-64
2022/06/30 07:31:12;;;;;;;7.97;5.82;;;20.70;99.90;;;;;;5034556;28;20033;-65
2022/06/30 07:33:39;;;;;;;14.80;7.00;;;20.80;99.90;;;;;;5034935;28;20046;-64
2022/06/30 07:36:06;;;;;;;12.18;6.35;;;20.90;99.90;;;;;;5035256;28;20091;-64
2022/06/30 07:38:34;;;;;;;16.58;5.93;;;21.00;99.90;;;;;;5033736;28;20053;-65
2022/06/30 07:41:01;;;;;;;15.07;5.97;;;21.10;99.90;;;;;;5034269;28;20042;-65
2022/06/30 07:43:27;;;;;;;12.43;6.00;;;21.10;99.90;;;;;;5034726;28;20444;-64
2022/06/30 07:45:54;;;;;;;10.35;5.55;;;21.10;99.90;;;;;;5034823;28;20049;-65
2022/06/30 07:48:21;;;;;;;8.23;5.93;;;21.20;99.90;;;;;;5033728;28;20045;-65
2022/06/30 07:50:48;;;;;;;10.60;6.00;;;21.30;99.90;;;;;;5034168;28;20445;-65
2022/06/30 07:53:15;;;;;;;12.68;6.53;;;21.40;99.90;;;;;;5034413;28;20052;-65
2022/06/30 07:55:41;;;;;;;8.07;5.80;;;21.50;99.90;;;;;;5034615;28;20045;-65
2022/06/30 07:58:08;;;;;;;8.85;5.80;;;21.60;99.90;;;;;;5033395;28;20442;-65
2022/06/30 08:00:35;;;;;;;12.85;6.22;;;21.80;99.90;;;;;;5034087;28;20395;-65
2022/06/30 08:03:02;;;;;;;10.13;5.65;;;21.90;99.90;;;;;;5034341;28;20068;-65
2022/06/30 08:05:29;;;;;;;8.93;5.88;;;22.00;99.90;;;;;;5033506;28;20408;-65
2022/06/30 08:07:56;;;;;;;9.02;5.35;;;22.20;99.90;;;;;;5033889;28;20045;-65
2022/06/30 08:10:22;;;;;;;13.13;6.03;;;22.30;99.90;;;;;;5034030;28;20050;-65
2022/06/30 08:12:49;;;;;;;7.22;5.72;;;22.30;99.90;;;;;;5033405;28;20059;-65
2022/06/30 08:15:16;;;;;;;10.05;5.10;;;22.50;99.90;;;;;;5047909;22;20045;-63
2022/06/30 08:17:43;;;;;;;11.50;5.57;;;22.60;99.90;;;;;;5034016;28;20048;-61
2022/06/30 08:20:10;;;;;;;9.43;5.35;;;22.60;99.90;;;;;;5040620;28;20045;-64
2022/06/30 08:22:37;;;;;;;12.10;5.43;;;22.80;99.90;;;;;;5033431;28;20041;-64
2022/06/30 08:25:04;;;;;;;8.63;5.25;;;23.00;99.90;;;;;;5016041;28;20033;-61
2022/06/30 08:27:31;;;;;;;8.65;5.20;;;23.10;99.90;;;;;;5034031;28;20129;-64
2022/06/30 08:29:58;;;;;;;6.65;5.30;;;23.30;99.90;;;;;;5033513;28;20045;-61
2022/06/30 08:32:25;;;;;;;10.82;5.78;;;23.50;99.90;;;;;;5032368;28;20052;-64
2022/06/30 08:34:52;;;;;;;11.10;5.68;;;23.40;99.90;;;;;;5033503;28;20041;-64
2022/06/30 08:37:19;;;;;;;8.30;4.93;;;23.50;99.90;;;;;;5033807;28;20045;-61
2022/06/30 08:42:32;;;;;;;10.45;4.72;;;23.50;99.90;;;;;;5033999;28;20075;-61
2022/06/30 08:45:14;;;;;;;9.82;5.30;;;23.60;99.90;;;;;;5033571;28;20068;-61
2022/06/30 08:47:42;;;;;;;8.98;5.07;;;23.80;99.90;;;;;;5033463;28;20045;-63
2022/06/30 08:50:09;;;;;;;10.27;5.53;;;23.80;99.90;;;;;;5032517;28;20516;-61
2022/06/30 08:52:51;;;;;;;6.97;4.88;;;24.00;99.90;;;;;;5033366;28;20608;-62
2022/06/30 08:55:22;;;;;;;12.38;4.93;;;24.00;99.90;;;;;;5033376;28;20037;-62
2022/06/30 08:57:53;;;;;;;9.95;5.25;;;24.00;99.90;;;;;;5033288;28;20049;-61
2022/06/30 09:00:20;;;;;;;8.85;5.53;;;23.90;99.90;;;;;;5028397;28;20056;-61
2022/06/30 09:02:47;;;;;;;8.05;4.45;;;23.90;99.90;;;;;;5033321;28;20080;-61
2022/06/30 09:05:15;;;;;;;7.93;4.80;;;23.90;99.90;;;;;;5015533;28;20052;-62
2022/06/30 09:07:42;;;;;;;8.15;4.85;;;23.90;99.90;;;;;;5032448;28;20037;-62
2022/06/30 09:10:29;;;;;;;8.57;4.18;;;23.90;99.90;;;;;;5018082;28;20461;-62
2022/06/30 09:13:01;;;;;;;8.25;4.90;;;24.00;99.90;;;;;;5033024;28;20478;-62
2022/06/30 09:15:37;;;;;;;6.50;4.35;;;24.10;99.90;;;;;;5032750;28;20045;-62
2022/06/30 09:18:04;;;;;;;8.52;5.05;;;24.30;99.90;;;;;;5032571;28;20572;-62
2022/06/30 09:20:33;;;;;;;10.13;4.90;;;24.40;99.90;;;;;;5032430;28;20509;-62
2022/06/30 09:23:00;;;;;;;10.15;4.97;;;24.40;99.90;;;;;;5032930;28;20049;-62
2022/06/30 09:25:30;;;;;;;6.88;4.60;;;24.40;99.90;;;;;;5032678;28;20044;-61
2022/06/30 09:27:57;;;;;;;7.68;4.80;;;24.50;99.90;;;;;;5032281;28;20064;-62
2022/06/30 09:30:24;;;;;;;8.93;4.80;;;24.70;99.90;;;;;;5032181;28;20052;-61
2022/06/30 09:32:57;;;;;;;7.82;5.20;;;24.70;99.90;;;;;;5032581;28;20048;-61
2022/06/30 09:35:26;;;;;;;11.98;4.90;;;24.70;99.90;;;;;;5014934;28;20386;-62
2022/06/30 09:38:12;;;;;;;10.45;4.82;;;24.70;99.90;;;;;;5032006;28;20038;-62
2022/06/30 09:41:00;;;;;;;7.93;4.60;;;24.90;99.90;;;;;;5032204;28;20048;-62
2022/06/30 09:43:37;;;;;;;10.48;5.38;;;25.10;99.90;;;;;;5032286;28;20053;-62
2022/06/30 09:46:05;;;;;;;5.07;4.57;;;25.10;99.90;;;;;;5032155;28;20382;-62
2022/06/30 09:48:33;;;;;;;8.45;4.40;;;25.30;99.90;;;;;;5032222;28;20049;-62
2022/06/30 09:51:02;;;;;;;6.97;4.25;;;25.40;99.90;;;;;;5031982;28;20072;-62
2022/06/30 09:53:30;;;;;;;5.75;4.57;;;25.40;99.90;;;;;;5031206;28;20037;-62
2022/06/30 09:56:12;;;;;;;7.32;4.05;;;25.40;99.90;;;;;;5032291;28;20053;-62
2022/06/30 09:58:42;;;;;;;7.32;4.68;;;25.50;99.90;;;;;;5014535;28;20038;-61
2022/06/30 10:01:10;;;;;;;7.47;4.32;;;25.50;99.90;;;;;;5031262;28;20029;-62
2022/06/30 10:03:45;;;;;;;6.40;4.57;;;25.40;99.90;;;;;;5031994;28;20452;-62
2022/06/30 10:06:16;;;;;;;9.93;4.88;;;25.50;99.90;;;;;;5032367;28;20408;-62
2022/06/30 10:08:43;;;;;;;7.72;4.57;;;25.60;99.90;;;;;;5031489;28;20041;-62
2022/06/30 10:11:11;;;;;;;9.75;5.10;;;25.60;99.90;;;;;;5031468;28;20109;-62
2022/06/30 10:13:40;;;;;;;9.43;5.30;;;25.70;99.90;;;;;;5031758;28;20048;-62
2022/06/30 10:16:08;;;;;;;8.02;4.55;;;25.80;99.90;;;;;;5031811;28;20068;-62
2022/06/30 10:18:39;;;;;;;10.60;4.90;;;26.00;99.90;;;;;;5031207;28;20040;-62
2022/06/30 10:21:08;;;;;;;8.90;4.95;;;26.10;99.90;;;;;;5023910;28;20041;-62
2022/06/30 10:23:35;;;;;;;9.20;4.68;;;26.30;99.90;;;;;;5031649;28;20045;-62
2022/06/30 10:26:06;;;;;;;;;;;26.40;99.90;;;;;;5031520;28;20037;-64
2022/06/30 10:28:33;;;;;;;7.80;4.95;;;26.20;99.90;;;;;;5031718;28;19921;-64
2022/06/30 10:31:17;;;;;;;;;;;26.20;99.90;;;;;;5031483;28;20052;-64
2022/06/30 10:33:56;;;;;;;7.88;4.53;;;26.30;99.90;;;;;;5013880;28;20278;-64
2022/06/30 10:36:30;;;;;;;10.07;4.90;;;26.50;99.90;;;;;;5031027;28;20498;-64
2022/06/30 10:39:18;;;;;;;7.13;4.43;;;26.80;99.90;;;;;;5031332;28;20494;-64
2022/06/30 10:41:47;;;;;;;6.32;4.95;;;27.10;99.90;;;;;;5031134;28;20125;-61
2022/06/30 10:44:24;;;;;;;6.57;4.80;;;27.20;99.90;;;;;;5031459;28;20037;-64
2022/06/30 10:46:55;;;;;;;6.80;4.47;;;27.10;99.90;;;;;;5030762;28;20037;-64
2022/06/30 10:49:24;;;;;;;8.00;4.45;;;27.10;99.90;;;;;;5031266;28;20053;-64
2022/06/30 10:51:56;;;;;;;7.18;4.40;;;27.30;99.90;;;;;;5030880;28;20068;-64
2022/06/30 10:54:30;;;;;;;7.28;4.30;;;27.30;99.90;;;;;;5030624;28;20042;-64
2022/06/30 10:56:59;;;;;;;6.88;4.07;;;27.20;99.90;;;;;;5031315;28;20052;-64
2022/06/30 10:59:34;;;;;;;9.02;4.43;;;27.30;99.90;;;;;;5031321;28;20045;-64
2022/06/30 11:02:07;;;;;;;6.43;4.47;;;27.30;99.90;;;;;;5029873;28;20045;-64
2022/06/30 11:04:45;;;;;;;9.75;4.35;;;27.40;99.90;;;;;;5013060;28;20402;-64
2022/06/30 11:07:22;;;;;;;7.55;5.00;;;27.60;99.90;;;;;;5031232;28;20060;-64
2022/06/30 11:09:52;;;;;;;7.63;4.78;;;27.70;99.90;;;;;;5030651;28;20049;-64
2022/06/30 11:12:48;;;;;;;10.23;4.80;;;27.60;99.90;;;;;;5030504;28;20049;-64
2022/06/30 11:15:15;;;;;;;6.28;4.97;;;27.70;99.90;;;;;;5024336;28;20037;-65
2022/06/30 11:17:42;;;;;;;;;;;27.80;99.90;;;;;;5031676;28;20048;-65
2022/06/30 11:20:16;;;;;;;6.43;4.68;;;27.90;99.90;;;;;;5030944;28;20449;-63
2022/06/30 11:22:44;;;;;;;9.93;4.63;;;27.90;99.90;;;;;;5027115;28;20037;-63
2022/06/30 11:28:02;;;;;;;5.18;4.60;;;27.70;99.90;;;;;;5029171;28;20053;-63
2022/06/30 11:30:31;;;;;;;10.18;4.53;;;27.50;99.90;;;;;;5030309;28;20044;-63
2022/06/30 11:32:58;;;;;;;10.35;5.40;;;27.40;99.90;;;;;;5030054;28;20049;-63
2022/06/30 11:35:29;;;;;;;9.82;5.18;;;27.50;99.90;;;;;;5013095;28;20037;-63
2022/06/30 11:37:56;;;;;;;6.57;4.85;;;27.50;99.90;;;;;;5028214;28;20037;-63
2022/06/30 11:40:23;;;;;;;10.40;5.25;;;27.40;99.90;;;;;;5029911;28;20517;-65
2022/06/30 11:42:53;;;;;;;6.47;4.65;;;27.40;99.90;;;;;;5029977;28;20045;-62
2022/06/30 11:45:23;;;;;;;12.05;4.90;;;27.30;99.90;;;;;;5030565;28;20041;-64
2022/06/30 11:47:54;;;;;;;5.05;4.47;;;27.30;99.90;;;;;;5030537;28;20064;-63
2022/06/30 11:50:23;;;;;;;11.85;5.07;;;27.30;99.90;;;;;;5029643;28;20992;-65
2022/06/30 11:52:55;;;;;;;10.20;4.78;;;27.20;99.90;;;;;;5030722;28;20038;-62
2022/06/30 11:55:27;;;;;;;8.52;5.68;;;27.30;99.90;;;;;;5030926;28;20044;-62
2022/06/30 11:57:55;;;;;;;8.60;4.80;;;27.30;99.90;;;;;;5030826;28;20042;-62
2022/06/30 12:00:31;;;;;;;10.73;5.72;;;27.40;99.90;;;;;;5028916;28;20048;-62
2022/06/30 12:02:58;;;;;;;9.77;5.63;;;27.30;99.90;;;;;;5030683;28;20048;-64
2022/06/30 12:05:28;;;;;;;10.50;5.22;;;27.40;99.90;;;;;;5030772;28;20052;-64
2022/06/30 12:07:56;;;;;;;8.23;4.53;;;27.40;99.90;;;;;;5030234;28;20371;-62
2022/06/30 12:10:24;;;;;;;9.32;5.30;;;27.50;99.90;;;;;;5029551;28;20108;-63
2022/06/30 12:12:58;;;;;;;7.95;4.97;;;27.50;99.90;;;;;;5030110;28;20457;-65
2022/06/30 12:15:25;;;;;;;9.35;4.78;;;27.50;99.90;;;;;;5032403;28;20045;-65
2022/06/30 12:17:53;;;;;;;;;;;27.50;99.90;;;;;;5034168;28;20052;-65
2022/06/30 12:20:22;;;;;;;10.47;4.90;;;27.50;99.90;;;;;;5033449;28;20378;-65
2022/06/30 12:22:51;;;;;;;10.85;5.00;;;27.50;99.90;;;;;;5033666;28;20052;-65
2022/06/30 12:25:19;;;;;;;8.57;5.70;;;27.50;99.90;;;;;;5033076;28;20038;-65
2022/06/30 12:27:51;;;;;;;5.80;5.03;;;27.60;99.90;;;;;;5033554;28;20041;-65
2022/06/30 12:30:29;;;;;;;8.77;4.45;;;27.60;99.90;;;;;;5033220;28;20041;-65
2022/06/30 12:32:56;;;;;;;;;;;27.70;99.90;;;;;;5033999;28;20053;-65
2022/06/30 12:35:26;;;;;;;8.73;5.18;;;27.80;99.90;;;;;;5032821;28;19928;-65
2022/06/30 12:37:55;;;;;;;9.55;5.20;;;27.80;99.90;;;;;;5032585;28;20471;-65
2022/06/30 12:40:26;;;;;;;8.27;5.00;;;27.70;99.90;;;;;;5030410;28;20034;-64
2022/06/30 12:42:55;;;;;;;9.07;5.35;;;27.70;99.90;;;;;;5033192;28;20076;-65
2022/06/30 12:45:45;;;;;;;6.18;4.47;;;27.80;99.90;;;;;;5030768;28;20044;-65
2022/06/30 12:48:46;;;;;;;7.65;4.60;;;27.90;99.90;;;;;;5030233;28;20107;-65
2022/06/30 12:51:28;;;;;;;10.73;5.32;;;27.90;99.90;;;;;;5032835;28;20037;-64
2022/06/30 12:54:06;;;;;;;12.15;4.65;;;27.90;99.90;;;;;;5029825;28;20042;-64
2022/06/30 12:56:33;;;;;;;4.90;4.38;;;28.00;99.90;;;;;;5032927;28;20033;-64
2022/06/30 12:59:03;;;;;;;9.23;4.78;;;28.00;99.90;;;;;;5032914;28;20037;-64
2022/06/30 13:01:38;;;;;;;11.93;5.10;;;28.00;99.90;;;;;;5029647;28;20387;-64
2022/06/30 13:04:10;;;;;;;9.63;4.90;;;28.10;99.90;;;;;;5032663;28;20045;-64
2022/06/30 13:06:39;;;;;;;9.82;5.10;;;28.10;99.90;;;;;;5030585;28;20045;-64
2022/06/30 13:09:12;;;;;;;7.38;4.78;;;28.10;99.90;;;;;;5032863;28;20046;-63